sensor_id;sensor_type;location;lat;lon;timestamp;temperature;humidity
71942;DHT22;59997;53.300;-6.260;2023-10-13T00:00:45;11.53;90.45
71942;DHT22;59997;53.300;-6.260;2023-10-13T00:03:12;11.54;90.63
71942;DHT22;59997;53.300;-6.260;2023-10-13T00:05:41;11.59;90.65
71942;DHT22;59997;53.300;-6.260;2023-10-13T00:08:09;11.60;90.08
71942;DHT22;59997;53.300;-6.260;2023-10-13T00:10:35;11.60;90.23
71942;DHT22;59997;53.300;-6.260;2023-10-13T00:13:01;11.62;90.20
71942;DHT22;59997;53.300;-6.260;2023-10-13T00:15:45;11.60;90.22
71942;DHT22;59997;53.300;-6.260;2023-10-13T00:18:30;11.56;90.31
71942;DHT22;59997;53.300;-6.260;2023-10-13T00:21:02;11.56;90.37
71942;DHT22;59997;53.300;-6.260;2023-10-13T00:23:38;11.63;90.27
71942;DHT22;59997;53.300;-6.260;2023-10-13T00:26:04;11.57;90.45
71942;DHT22;59997;53.300;-6.260;2023-10-13T00:28:34;11.52;90.54
71942;DHT22;59997;53.300;-6.260;2023-10-13T00:31:10;11.50;90.70
71942;DHT22;59997;53.300;-6.260;2023-10-13T00:33:40;11.47;90.89
71942;DHT22;59997;53.300;-6.260;2023-10-13T00:36:07;11.50;90.84
71942;DHT22;59997;53.300;-6.260;2023-10-13T00:38:34;11.44;90.98
71942;DHT22;59997;53.300;-6.260;2023-10-13T00:41:03;11.44;91.14
71942;DHT22;59997;53.300;-6.260;2023-10-13T00:43:32;11.47;91.35
71942;DHT22;59997;53.300;-6.260;2023-10-13T00:46:01;11.44;91.29
71942;DHT22;59997;53.300;-6.260;2023-10-13T00:48:32;11.39;91.25
71942;DHT22;59997;53.300;-6.260;2023-10-13T00:51:04;11.40;91.28
71942;DHT22;59997;53.300;-6.260;2023-10-13T00:53:33;11.39;91.37
71942;DHT22;59997;53.300;-6.260;2023-10-13T00:56:01;11.35;91.39
71942;DHT22;59997;53.300;-6.260;2023-10-13T00:58:33;11.32;91.47
71942;DHT22;59997;53.300;-6.260;2023-10-13T01:01:00;11.37;91.56
71942;DHT22;59997;53.300;-6.260;2023-10-13T01:03:52;11.36;91.51
71942;DHT22;59997;53.300;-6.260;2023-10-13T01:06:27;11.32;91.54
71942;DHT22;59997;53.300;-6.260;2023-10-13T01:11:50;11.32;91.67
71942;DHT22;59997;53.300;-6.260;2023-10-13T01:14:20;11.37;91.66
71942;DHT22;59997;53.300;-6.260;2023-10-13T01:16:47;11.35;91.73
71942;DHT22;59997;53.300;-6.260;2023-10-13T01:19:16;11.36;91.75
71942;DHT22;59997;53.300;-6.260;2023-10-13T01:21:50;11.33;91.81
71942;DHT22;59997;53.300;-6.260;2023-10-13T01:24:19;11.37;91.77
71942;DHT22;59997;53.300;-6.260;2023-10-13T01:26:49;11.40;91.74
71942;DHT22;59997;53.300;-6.260;2023-10-13T01:29:16;11.35;91.72
71942;DHT22;59997;53.300;-6.260;2023-10-13T01:31:45;11.39;91.88
71942;DHT22;59997;53.300;-6.260;2023-10-13T01:34:18;11.39;91.90
71942;DHT22;59997;53.300;-6.260;2023-10-13T01:36:54;11.36;91.96
71942;DHT22;59997;53.300;-6.260;2023-10-13T01:39:24;11.35;91.96
71942;DHT22;59997;53.300;-6.260;2023-10-13T01:41:55;11.40;92.07
71942;DHT22;59997;53.300;-6.260;2023-10-13T01:44:25;11.40;91.96
71942;DHT22;59997;53.300;-6.260;2023-10-13T01:46:53;11.33;91.96
71942;DHT22;59997;53.300;-6.260;2023-10-13T01:49:19;11.42;91.97
71942;DHT22;59997;53.300;-6.260;2023-10-13T01:51:46;11.40;91.93
71942;DHT22;59997;53.300;-6.260;2023-10-13T01:54:13;11.44;91.97
71942;DHT22;59997;53.300;-6.260;2023-10-13T01:56:39;11.39;91.92
71942;DHT22;59997;53.300;-6.260;2023-10-13T01:59:13;11.36;91.93
71942;DHT22;59997;53.300;-6.260;2023-10-13T02:01:39;11.32;91.99
71942;DHT22;59997;53.300;-6.260;2023-10-13T02:04:08;11.35;92.06
71942;DHT22;59997;53.300;-6.260;2023-10-13T02:06:36;11.37;92.04
71942;DHT22;59997;53.300;-6.260;2023-10-13T02:09:07;11.28;92.04
71942;DHT22;59997;53.300;-6.260;2023-10-13T02:11:39;11.26;92.16
71942;DHT22;59997;53.300;-6.260;2023-10-13T02:14:06;11.25;92.20
71942;DHT22;59997;53.300;-6.260;2023-10-13T02:16:32;11.26;92.18
71942;DHT22;59997;53.300;-6.260;2023-10-13T02:18:58;11.23;92.18
71942;DHT22;59997;53.300;-6.260;2023-10-13T02:21:32;11.19;92.26
71942;DHT22;59997;53.300;-6.260;2023-10-13T02:24:00;11.22;92.26
71942;DHT22;59997;53.300;-6.260;2023-10-13T02:26:30;11.22;92.26
71942;DHT22;59997;53.300;-6.260;2023-10-13T02:29:02;11.16;92.28
71942;DHT22;59997;53.300;-6.260;2023-10-13T02:31:35;11.16;92.38
71942;DHT22;59997;53.300;-6.260;2023-10-13T02:34:00;11.14;92.41
71942;DHT22;59997;53.300;-6.260;2023-10-13T02:36:31;11.11;92.45
71942;DHT22;59997;53.300;-6.260;2023-10-13T02:39:12;11.14;92.45
71942;DHT22;59997;53.300;-6.260;2023-10-13T02:41:39;11.12;92.51
71942;DHT22;59997;53.300;-6.260;2023-10-13T02:44:07;11.16;92.42
71942;DHT22;59997;53.300;-6.260;2023-10-13T02:46:37;11.12;92.43
71942;DHT22;59997;53.300;-6.260;2023-10-13T02:49:05;11.11;92.42
71942;DHT22;59997;53.300;-6.260;2023-10-13T02:51:38;11.11;92.42
71942;DHT22;59997;53.300;-6.260;2023-10-13T02:54:07;11.05;92.44
71942;DHT22;59997;53.300;-6.260;2023-10-13T02:56:36;11.05;92.41
71942;DHT22;59997;53.300;-6.260;2023-10-13T02:59:02;11.02;92.47
71942;DHT22;59997;53.300;-6.260;2023-10-13T03:01:34;11.04;92.48
71942;DHT22;59997;53.300;-6.260;2023-10-13T03:04:01;11.07;92.52
71942;DHT22;59997;53.300;-6.260;2023-10-13T03:06:28;11.10;92.48
71942;DHT22;59997;53.300;-6.260;2023-10-13T03:09:02;11.11;92.53
71942;DHT22;59997;53.300;-6.260;2023-10-13T03:11:42;11.05;92.52
71942;DHT22;59997;53.300;-6.260;2023-10-13T03:14:20;11.07;92.61
71942;DHT22;59997;53.300;-6.260;2023-10-13T03:17:00;11.07;92.63
71942;DHT22;59997;53.300;-6.260;2023-10-13T03:19:34;11.18;92.57
71942;DHT22;59997;53.300;-6.260;2023-10-13T03:22:03;11.12;92.51
71942;DHT22;59997;53.300;-6.260;2023-10-13T03:24:38;11.12;92.53
71942;DHT22;59997;53.300;-6.260;2023-10-13T03:27:17;11.08;92.59
71942;DHT22;59997;53.300;-6.260;2023-10-13T03:29:47;11.14;92.59
71942;DHT22;59997;53.300;-6.260;2023-10-13T03:32:15;11.14;92.58
71942;DHT22;59997;53.300;-6.260;2023-10-13T03:34:44;11.14;92.60
71942;DHT22;59997;53.300;-6.260;2023-10-13T03:37:20;11.19;92.60
71942;DHT22;59997;53.300;-6.260;2023-10-13T03:40:13;11.29;92.51
71942;DHT22;59997;53.300;-6.260;2023-10-13T03:43:01;11.28;92.45
71942;DHT22;59997;53.300;-6.260;2023-10-13T03:45:39;11.29;92.41
71942;DHT22;59997;53.300;-6.260;2023-10-13T03:50:40;11.29;92.41
71942;DHT22;59997;53.300;-6.260;2023-10-13T03:53:25;11.25;92.46
71942;DHT22;59997;53.300;-6.260;2023-10-13T03:56:05;11.30;92.41
71942;DHT22;59997;53.300;-6.260;2023-10-13T03:58:37;11.29;92.38
71942;DHT22;59997;53.300;-6.260;2023-10-13T04:01:11;11.32;92.37
71942;DHT22;59997;53.300;-6.260;2023-10-13T04:03:40;11.30;92.38
71942;DHT22;59997;53.300;-6.260;2023-10-13T04:06:25;11.25;92.36
71942;DHT22;59997;53.300;-6.260;2023-10-13T04:09:21;11.19;92.34
71942;DHT22;59997;53.300;-6.260;2023-10-13T04:11:56;11.18;92.31
71942;DHT22;59997;53.300;-6.260;2023-10-13T04:14:32;11.16;92.39
71942;DHT22;59997;53.300;-6.260;2023-10-13T04:17:10;11.21;92.34
71942;DHT22;59997;53.300;-6.260;2023-10-13T04:19:47;11.19;92.35
71942;DHT22;59997;53.300;-6.260;2023-10-13T04:22:39;11.19;92.34
71942;DHT22;59997;53.300;-6.260;2023-10-13T04:25:20;11.21;92.31
71942;DHT22;59997;53.300;-6.260;2023-10-13T04:28:24;11.16;92.25
71942;DHT22;59997;53.300;-6.260;2023-10-13T04:30:52;11.18;92.34
71942;DHT22;59997;53.300;-6.260;2023-10-13T04:33:18;11.18;92.37
71942;DHT22;59997;53.300;-6.260;2023-10-13T04:36:10;11.21;92.32
71942;DHT22;59997;53.300;-6.260;2023-10-13T04:38:48;11.16;92.34
71942;DHT22;59997;53.300;-6.260;2023-10-13T04:41:29;11.14;92.28
71942;DHT22;59997;53.300;-6.260;2023-10-13T04:44:08;11.01;92.29
71942;DHT22;59997;53.300;-6.260;2023-10-13T04:46:53;11.01;92.32
71942;DHT22;59997;53.300;-6.260;2023-10-13T04:49:26;10.88;92.31
71942;DHT22;59997;53.300;-6.260;2023-10-13T04:52:04;10.77;92.34
71942;DHT22;59997;53.300;-6.260;2023-10-13T04:54:40;10.71;92.34
71942;DHT22;59997;53.300;-6.260;2023-10-13T04:57:20;10.64;92.39
71942;DHT22;59997;53.300;-6.260;2023-10-13T05:00:05;10.64;92.39
71942;DHT22;59997;53.300;-6.260;2023-10-13T05:02:39;10.56;92.35
71942;DHT22;59997;53.300;-6.260;2023-10-13T05:07:32;10.41;92.37
71942;DHT22;59997;53.300;-6.260;2023-10-13T05:10:17;10.25;92.31
71942;DHT22;59997;53.300;-6.260;2023-10-13T05:13:01;10.21;92.37
71942;DHT22;59997;53.300;-6.260;2023-10-13T05:15:49;10.08;92.34
71942;DHT22;59997;53.300;-6.260;2023-10-13T05:18:33;10.07;92.39
71942;DHT22;59997;53.300;-6.260;2023-10-13T05:21:18;10.08;92.46
71942;DHT22;59997;53.300;-6.260;2023-10-13T05:24:03;10.01;92.31
71942;DHT22;59997;53.300;-6.260;2023-10-13T05:26:47;9.94;92.37
71942;DHT22;59997;53.300;-6.260;2023-10-13T05:29:31;9.90;92.32
71942;DHT22;59997;53.300;-6.260;2023-10-13T05:32:15;9.72;92.35
71942;DHT22;59997;53.300;-6.260;2023-10-13T05:35:00;9.46;92.05
71942;DHT22;59997;53.300;-6.260;2023-10-13T05:37:44;9.28;92.00
71942;DHT22;59997;53.300;-6.260;2023-10-13T05:40:28;9.22;92.07
71942;DHT22;59997;53.300;-6.260;2023-10-13T05:43:12;9.20;92.15
71942;DHT22;59997;53.300;-6.260;2023-10-13T05:46:01;9.18;92.20
71942;DHT22;59997;53.300;-6.260;2023-10-13T05:48:55;9.13;92.21
71942;DHT22;59997;53.300;-6.260;2023-10-13T05:51:27;9.15;92.27
71942;DHT22;59997;53.300;-6.260;2023-10-13T05:54:03;9.18;92.26
71942;DHT22;59997;53.300;-6.260;2023-10-13T05:56:41;9.15;92.29
71942;DHT22;59997;53.300;-6.260;2023-10-13T05:59:26;9.18;92.35
71942;DHT22;59997;53.300;-6.260;2023-10-13T06:02:10;9.17;92.40
71942;DHT22;59997;53.300;-6.260;2023-10-13T06:05:01;9.15;92.45
71942;DHT22;59997;53.300;-6.260;2023-10-13T06:07:45;9.21;92.51
71942;DHT22;59997;53.300;-6.260;2023-10-13T06:10:29;9.20;92.56
71942;DHT22;59997;53.300;-6.260;2023-10-13T06:13:14;9.28;92.63
71942;DHT22;59997;53.300;-6.260;2023-10-13T06:15:58;9.20;92.39
71942;DHT22;59997;53.300;-6.260;2023-10-13T06:18:42;9.11;92.23
71942;DHT22;59997;53.300;-6.260;2023-10-13T06:21:27;9.01;92.12
71942;DHT22;59997;53.300;-6.260;2023-10-13T06:24:10;8.91;92.10
71942;DHT22;59997;53.300;-6.260;2023-10-13T06:26:55;8.93;92.16
71942;DHT22;59997;53.300;-6.260;2023-10-13T06:29:39;8.94;92.28
71942;DHT22;59997;53.300;-6.260;2023-10-13T06:32:06;8.96;92.43
71942;DHT22;59997;53.300;-6.260;2023-10-13T06:34:37;9.00;92.56
71942;DHT22;59997;53.300;-6.260;2023-10-13T06:37:08;8.93;92.51
71942;DHT22;59997;53.300;-6.260;2023-10-13T06:39:53;8.93;92.54
71942;DHT22;59997;53.300;-6.260;2023-10-13T06:42:27;8.90;92.52
71942;DHT22;59997;53.300;-6.260;2023-10-13T06:44:55;8.91;92.55
71942;DHT22;59997;53.300;-6.260;2023-10-13T06:47:22;8.96;92.60
71942;DHT22;59997;53.300;-6.260;2023-10-13T06:49:48;8.96;92.50
71942;DHT22;59997;53.300;-6.260;2023-10-13T06:52:19;8.94;92.43
71942;DHT22;59997;53.300;-6.260;2023-10-13T06:54:44;8.96;92.44
71942;DHT22;59997;53.300;-6.260;2023-10-13T06:57:10;8.99;92.35
71942;DHT22;59997;53.300;-6.260;2023-10-13T06:59:46;9.00;92.24
71942;DHT22;59997;53.300;-6.260;2023-10-13T07:02:12;8.96;92.28
71942;DHT22;59997;53.300;-6.260;2023-10-13T07:04:46;9.00;92.36
71942;DHT22;59997;53.300;-6.260;2023-10-13T07:07:12;9.00;92.42
71942;DHT22;59997;53.300;-6.260;2023-10-13T07:09:41;9.00;92.39
71942;DHT22;59997;53.300;-6.260;2023-10-13T07:12:14;9.01;92.39
71942;DHT22;59997;53.300;-6.260;2023-10-13T07:14:52;8.97;92.32
71942;DHT22;59997;53.300;-6.260;2023-10-13T07:17:18;9.04;92.29
71942;DHT22;59997;53.300;-6.260;2023-10-13T07:19:52;9.08;92.23
71942;DHT22;59997;53.300;-6.260;2023-10-13T07:22:19;9.11;92.19
71942;DHT22;59997;53.300;-6.260;2023-10-13T07:24:50;9.18;92.15
71942;DHT22;59997;53.300;-6.260;2023-10-13T07:27:20;9.22;92.15
71942;DHT22;59997;53.300;-6.260;2023-10-13T07:29:55;9.24;92.01
71942;DHT22;59997;53.300;-6.260;2023-10-13T07:32:42;9.22;91.83
71942;DHT22;59997;53.300;-6.260;2023-10-13T07:35:15;9.30;91.64
71942;DHT22;59997;53.300;-6.260;2023-10-13T07:37:43;9.36;91.44
71942;DHT22;59997;53.300;-6.260;2023-10-13T07:40:10;9.41;91.31
71942;DHT22;59997;53.300;-6.260;2023-10-13T07:42:51;9.48;91.16
71942;DHT22;59997;53.300;-6.260;2023-10-13T07:45:17;9.49;90.96
71942;DHT22;59997;53.300;-6.260;2023-10-13T07:47:51;9.52;90.93
71942;DHT22;59997;53.300;-6.260;2023-10-13T07:50:16;9.60;90.88
71942;DHT22;59997;53.300;-6.260;2023-10-13T07:52:50;9.60;90.80
71942;DHT22;59997;53.300;-6.260;2023-10-13T07:55:31;9.65;90.45
71942;DHT22;59997;53.300;-6.260;2023-10-13T07:57:59;9.73;90.34
71942;DHT22;59997;53.300;-6.260;2023-10-13T08:00:25;9.83;90.44
71942;DHT22;59997;53.300;-6.260;2023-10-13T08:03:12;9.91;90.12
71942;DHT22;59997;53.300;-6.260;2023-10-13T08:05:41;9.95;90.03
71942;DHT22;59997;53.300;-6.260;2023-10-13T08:08:39;9.97;90.38
71942;DHT22;59997;53.300;-6.260;2023-10-13T08:11:07;9.98;90.30
71942;DHT22;59997;53.300;-6.260;2023-10-13T08:13:56;10.00;89.73
71942;DHT22;59997;53.300;-6.260;2023-10-13T08:16:29;10.08;89.97
71942;DHT22;59997;53.300;-6.260;2023-10-13T08:19:14;10.18;90.15
71942;DHT22;59997;53.300;-6.260;2023-10-13T08:21:41;10.18;89.95
71942;DHT22;59997;53.300;-6.260;2023-10-13T08:24:15;10.36;89.73
71942;DHT22;59997;53.300;-6.260;2023-10-13T08:26:41;10.53;88.92
71942;DHT22;59997;53.300;-6.260;2023-10-13T08:29:25;10.73;88.46
71942;DHT22;59997;53.300;-6.260;2023-10-13T08:31:54;10.83;88.16
71942;DHT22;59997;53.300;-6.260;2023-10-13T08:34:39;10.87;88.05
71942;DHT22;59997;53.300;-6.260;2023-10-13T08:37:08;10.95;87.82
71942;DHT22;59997;53.300;-6.260;2023-10-13T08:39:57;10.87;88.21
71942;DHT22;59997;53.300;-6.260;2023-10-13T08:42:44;10.93;88.34
71942;DHT22;59997;53.300;-6.260;2023-10-13T08:45:13;11.11;88.17
71942;DHT22;59997;53.300;-6.260;2023-10-13T08:47:58;11.07;87.87
71942;DHT22;59997;53.300;-6.260;2023-10-13T08:53:30;11.00;88.64
71942;DHT22;59997;53.300;-6.260;2023-10-13T08:56:07;10.74;88.72
71942;DHT22;59997;53.300;-6.260;2023-10-13T08:58:41;10.73;89.02
71942;DHT22;59997;53.300;-6.260;2023-10-13T09:04:07;10.87;89.19
71942;DHT22;59997;53.300;-6.260;2023-10-13T09:07:01;10.63;89.42
71942;DHT22;59997;53.300;-6.260;2023-10-13T09:09:51;10.50;89.65
71942;DHT22;59997;53.300;-6.260;2023-10-13T09:12:21;10.45;89.77
71942;DHT22;59997;53.300;-6.260;2023-10-13T09:15:01;10.48;89.77
71942;DHT22;59997;53.300;-6.260;2023-10-13T09:17:39;10.57;89.78
71942;DHT22;59997;53.300;-6.260;2023-10-13T09:20:07;10.60;89.42
71942;DHT22;59997;53.300;-6.260;2023-10-13T09:22:52;10.53;88.93
71942;DHT22;59997;53.300;-6.260;2023-10-13T09:25:38;10.59;89.34
71942;DHT22;59997;53.300;-6.260;2023-10-13T09:28:19;10.57;89.65
71942;DHT22;59997;53.300;-6.260;2023-10-13T09:30:48;10.70;89.52
71942;DHT22;59997;53.300;-6.260;2023-10-13T09:33:13;10.67;89.50
71942;DHT22;59997;53.300;-6.260;2023-10-13T09:35:46;10.88;89.10
71942;DHT22;59997;53.300;-6.260;2023-10-13T09:38:17;11.15;88.55
71942;DHT22;59997;53.300;-6.260;2023-10-13T09:40:44;11.62;88.13
71942;DHT22;59997;53.300;-6.260;2023-10-13T09:43:17;11.82;87.83
71942;DHT22;59997;53.300;-6.260;2023-10-13T09:45:46;11.88;86.84
71942;DHT22;59997;53.300;-6.260;2023-10-13T09:48:38;12.30;85.93
71942;DHT22;59997;53.300;-6.260;2023-10-13T09:51:16;12.16;86.06
71942;DHT22;59997;53.300;-6.260;2023-10-13T09:53:58;11.97;86.31
71942;DHT22;59997;53.300;-6.260;2023-10-13T09:56:30;11.77;85.73
71942;DHT22;59997;53.300;-6.260;2023-10-13T09:59:06;11.69;86.52
71942;DHT22;59997;53.300;-6.260;2023-10-13T10:01:45;11.60;86.36
71942;DHT22;59997;53.300;-6.260;2023-10-13T10:04:22;11.69;85.81
71942;DHT22;59997;53.300;-6.260;2023-10-13T10:06:55;11.62;85.44
71942;DHT22;59997;53.300;-6.260;2023-10-13T10:09:33;11.49;86.36
71942;DHT22;59997;53.300;-6.260;2023-10-13T10:15:11;12.53;82.64
71942;DHT22;59997;53.300;-6.260;2023-10-13T10:17:46;12.69;81.75
71942;DHT22;59997;53.300;-6.260;2023-10-13T10:20:13;13.46;80.31
71942;DHT22;59997;53.300;-6.260;2023-10-13T10:22:59;13.62;78.24
71942;DHT22;59997;53.300;-6.260;2023-10-13T10:25:35;13.46;78.43
71942;DHT22;59997;53.300;-6.260;2023-10-13T10:28:02;13.92;78.07
71942;DHT22;59997;53.300;-6.260;2023-10-13T10:30:38;13.41;79.49
71942;DHT22;59997;53.300;-6.260;2023-10-13T10:33:05;13.54;79.05
71942;DHT22;59997;53.300;-6.260;2023-10-13T10:35:39;13.64;80.06
71942;DHT22;59997;53.300;-6.260;2023-10-13T10:41:01;13.85;76.30
71942;DHT22;59997;53.300;-6.260;2023-10-13T10:46:07;13.79;73.44
71942;DHT22;59997;53.300;-6.260;2023-10-13T10:48:33;13.74;73.92
71942;DHT22;59997;53.300;-6.260;2023-10-13T10:51:00;13.64;72.09
71942;DHT22;59997;53.300;-6.260;2023-10-13T10:53:33;13.47;72.01
71942;DHT22;59997;53.300;-6.260;2023-10-13T10:56:10;13.58;71.67
71942;DHT22;59997;53.300;-6.260;2023-10-13T10:58:55;13.30;74.47
71942;DHT22;59997;53.300;-6.260;2023-10-13T11:01:22;13.41;73.65
71942;DHT22;59997;53.300;-6.260;2023-10-13T11:04:00;13.37;72.92
71942;DHT22;59997;53.300;-6.260;2023-10-13T11:06:52;13.77;71.94
71942;DHT22;59997;53.300;-6.260;2023-10-13T11:09:32;13.83;69.63
71942;DHT22;59997;53.300;-6.260;2023-10-13T11:14:40;14.55;68.69
71942;DHT22;59997;53.300;-6.260;2023-10-13T11:17:06;13.87;69.74
71942;DHT22;59997;53.300;-6.260;2023-10-13T11:19:44;13.41;71.45
71942;DHT22;59997;53.300;-6.260;2023-10-13T11:22:20;13.05;70.95
71942;DHT22;59997;53.300;-6.260;2023-10-13T11:25:05;12.98;70.29
71942;DHT22;59997;53.300;-6.260;2023-10-13T11:27:38;13.06;71.38
71942;DHT22;59997;53.300;-6.260;2023-10-13T11:30:19;13.64;69.40
71942;DHT22;59997;53.300;-6.260;2023-10-13T11:33:11;13.72;66.47
71942;DHT22;59997;53.300;-6.260;2023-10-13T11:35:43;14.12;66.43
71942;DHT22;59997;53.300;-6.260;2023-10-13T11:38:31;14.02;63.05
71942;DHT22;59997;53.300;-6.260;2023-10-13T11:41:08;14.31;64.51
71942;DHT22;59997;53.300;-6.260;2023-10-13T11:46:09;14.55;62.81
71942;DHT22;59997;53.300;-6.260;2023-10-13T11:48:35;14.78;64.18
71942;DHT22;59997;53.300;-6.260;2023-10-13T11:51:08;15.02;63.67
71942;DHT22;59997;53.300;-6.260;2023-10-13T11:53:38;14.40;64.19
71942;DHT22;59997;53.300;-6.260;2023-10-13T11:56:04;13.78;66.16
71942;DHT22;59997;53.300;-6.260;2023-10-13T11:58:37;14.36;64.34
71942;DHT22;59997;53.300;-6.260;2023-10-13T12:01:03;13.64;66.35
71942;DHT22;59997;53.300;-6.260;2023-10-13T12:03:47;12.87;70.11
71942;DHT22;59997;53.300;-6.260;2023-10-13T12:06:32;13.32;69.59
71942;DHT22;59997;53.300;-6.260;2023-10-13T12:09:13;13.39;69.86
71942;DHT22;59997;53.300;-6.260;2023-10-13T12:11:50;14.06;67.45
71942;DHT22;59997;53.300;-6.260;2023-10-13T12:14:17;14.03;67.57
71942;DHT22;59997;53.300;-6.260;2023-10-13T12:16:48;13.60;66.83
71942;DHT22;59997;53.300;-6.260;2023-10-13T12:19:23;13.34;68.01
71942;DHT22;59997;53.300;-6.260;2023-10-13T12:21:53;13.16;69.72
71942;DHT22;59997;53.300;-6.260;2023-10-13T12:24:27;12.89;69.59
71942;DHT22;59997;53.300;-6.260;2023-10-13T12:27:02;13.36;69.50
71942;DHT22;59997;53.300;-6.260;2023-10-13T12:29:28;13.67;67.70
71942;DHT22;59997;53.300;-6.260;2023-10-13T12:31:57;13.60;69.23
71942;DHT22;59997;53.300;-6.260;2023-10-13T12:34:40;13.62;69.64
71942;DHT22;59997;53.300;-6.260;2023-10-13T12:37:25;13.34;70.87
71942;DHT22;59997;53.300;-6.260;2023-10-13T12:40:19;13.58;69.17
71942;DHT22;59997;53.300;-6.260;2023-10-13T12:43:04;13.90;69.08
71942;DHT22;59997;53.300;-6.260;2023-10-13T12:45:49;13.68;67.62
71942;DHT22;59997;53.300;-6.260;2023-10-13T12:48:36;13.86;68.41
71942;DHT22;59997;53.300;-6.260;2023-10-13T12:51:20;13.81;67.95
71942;DHT22;59997;53.300;-6.260;2023-10-13T12:53:47;13.79;66.33
71942;DHT22;59997;53.300;-6.260;2023-10-13T12:56:14;13.77;65.42
71942;DHT22;59997;53.300;-6.260;2023-10-13T12:58:41;13.99;65.84
71942;DHT22;59997;53.300;-6.260;2023-10-13T13:01:06;13.69;66.95
71942;DHT22;59997;53.300;-6.260;2023-10-13T13:03:32;13.57;68.30
71942;DHT22;59997;53.300;-6.260;2023-10-13T13:05:58;13.26;68.96
71942;DHT22;59997;53.300;-6.260;2023-10-13T13:08:24;13.33;68.61
71942;DHT22;59997;53.300;-6.260;2023-10-13T13:10:50;13.60;67.50
71942;DHT22;59997;53.300;-6.260;2023-10-13T13:13:17;13.85;65.54
71942;DHT22;59997;53.300;-6.260;2023-10-13T13:15:49;13.77;65.19
71942;DHT22;59997;53.300;-6.260;2023-10-13T13:18:15;13.60;65.73
71942;DHT22;59997;53.300;-6.260;2023-10-13T13:20:40;13.69;65.09
71942;DHT22;59997;53.300;-6.260;2023-10-13T13:23:18;13.36;65.84
71942;DHT22;59997;53.300;-6.260;2023-10-13T13:25:45;13.08;66.32
71942;DHT22;59997;53.300;-6.260;2023-10-13T13:28:11;12.74;68.89
71942;DHT22;59997;53.300;-6.260;2023-10-13T13:30:37;12.21;69.33
71942;DHT22;59997;53.300;-6.260;2023-10-13T13:33:04;12.12;69.16
71942;DHT22;59997;53.300;-6.260;2023-10-13T13:35:39;12.26;68.48
71942;DHT22;59997;53.300;-6.260;2023-10-13T13:38:07;12.47;68.89
71942;DHT22;59997;53.300;-6.260;2023-10-13T13:40:41;12.65;68.62
71942;DHT22;59997;53.300;-6.260;2023-10-13T13:43:09;12.78;67.71
71942;DHT22;59997;53.300;-6.260;2023-10-13T13:45:44;12.73;65.98
71942;DHT22;59997;53.300;-6.260;2023-10-13T13:48:10;12.69;66.05
71942;DHT22;59997;53.300;-6.260;2023-10-13T13:50:43;12.96;65.93
71942;DHT22;59997;53.300;-6.260;2023-10-13T13:53:09;12.87;64.28
71942;DHT22;59997;53.300;-6.260;2023-10-13T13:55:36;12.74;66.08
71942;DHT22;59997;53.300;-6.260;2023-10-13T13:58:05;12.96;65.73
71942;DHT22;59997;53.300;-6.260;2023-10-13T14:00:33;13.03;66.35
71942;DHT22;59997;53.300;-6.260;2023-10-13T14:03:11;13.13;66.33
71942;DHT22;59997;53.300;-6.260;2023-10-13T14:06:09;13.16;67.54
71942;DHT22;59997;53.300;-6.260;2023-10-13T14:08:42;13.30;67.49
71942;DHT22;59997;53.300;-6.260;2023-10-13T14:11:09;13.36;67.26
71942;DHT22;59997;53.300;-6.260;2023-10-13T14:13:41;13.40;68.30
71942;DHT22;59997;53.300;-6.260;2023-10-13T14:16:17;13.44;67.59
71942;DHT22;59997;53.300;-6.260;2023-10-13T14:18:50;13.47;66.35
71942;DHT22;59997;53.300;-6.260;2023-10-13T14:21:16;13.48;65.02
71942;DHT22;59997;53.300;-6.260;2023-10-13T14:23:51;13.53;64.46
71942;DHT22;59997;53.300;-6.260;2023-10-13T14:26:20;13.61;64.16
71942;DHT22;59997;53.300;-6.260;2023-10-13T14:28:53;13.55;63.72
71942;DHT22;59997;53.300;-6.260;2023-10-13T14:31:35;13.50;62.22
71942;DHT22;59997;53.300;-6.260;2023-10-13T14:34:04;13.55;63.15
71942;DHT22;59997;53.300;-6.260;2023-10-13T14:36:30;13.48;63.28
71942;DHT22;59997;53.300;-6.260;2023-10-13T14:39:00;13.47;64.28
71942;DHT22;59997;53.300;-6.260;2023-10-13T14:41:25;13.50;63.86
71942;DHT22;59997;53.300;-6.260;2023-10-13T14:43:51;13.51;64.64
71942;DHT22;59997;53.300;-6.260;2023-10-13T14:46:18;13.58;64.50
71942;DHT22;59997;53.300;-6.260;2023-10-13T14:48:48;13.65;64.64
71942;DHT22;59997;53.300;-6.260;2023-10-13T14:51:14;13.72;63.78
71942;DHT22;59997;53.300;-6.260;2023-10-13T14:53:42;13.40;63.22
71942;DHT22;59997;53.300;-6.260;2023-10-13T14:56:15;13.28;65.15
71942;DHT22;59997;53.300;-6.260;2023-10-13T14:58:41;13.37;63.36
71942;DHT22;59997;53.300;-6.260;2023-10-13T15:01:28;13.27;62.47
71942;DHT22;59997;53.300;-6.260;2023-10-13T15:03:54;12.99;63.61
71942;DHT22;59997;53.300;-6.260;2023-10-13T15:06:25;12.91;66.10
71942;DHT22;59997;53.300;-6.260;2023-10-13T15:08:54;12.81;66.13
71942;DHT22;59997;53.300;-6.260;2023-10-13T15:11:20;12.85;65.26
71942;DHT22;59997;53.300;-6.260;2023-10-13T15:13:46;12.93;65.61
71942;DHT22;59997;53.300;-6.260;2023-10-13T15:16:20;12.82;67.69
71942;DHT22;59997;53.300;-6.260;2023-10-13T15:18:47;12.82;66.21
71942;DHT22;59997;53.300;-6.260;2023-10-13T15:21:20;12.77;66.43
71942;DHT22;59997;53.300;-6.260;2023-10-13T15:23:49;12.65;64.77
71942;DHT22;59997;53.300;-6.260;2023-10-13T15:26:19;12.57;66.67
71942;DHT22;59997;53.300;-6.260;2023-10-13T15:28:49;12.50;67.45
71942;DHT22;59997;53.300;-6.260;2023-10-13T15:31:19;12.49;67.68
71942;DHT22;59997;53.300;-6.260;2023-10-13T15:34:01;12.46;67.46
71942;DHT22;59997;53.300;-6.260;2023-10-13T15:36:39;12.43;67.55
71942;DHT22;59997;53.300;-6.260;2023-10-13T15:39:04;12.44;67.56
71942;DHT22;59997;53.300;-6.260;2023-10-13T15:41:33;12.51;67.60
71942;DHT22;59997;53.300;-6.260;2023-10-13T15:43:59;12.77;67.24
71942;DHT22;59997;53.300;-6.260;2023-10-13T15:46:24;12.92;67.78
71942;DHT22;59997;53.300;-6.260;2023-10-13T15:48:51;12.85;67.18
71942;DHT22;59997;53.300;-6.260;2023-10-13T15:51:17;12.74;66.75
71942;DHT22;59997;53.300;-6.260;2023-10-13T15:53:44;12.77;66.83
71942;DHT22;59997;53.300;-6.260;2023-10-13T15:56:10;12.63;66.63
71942;DHT22;59997;53.300;-6.260;2023-10-13T15:58:43;12.61;67.04
71942;DHT22;59997;53.300;-6.260;2023-10-13T16:01:10;12.54;66.74
71942;DHT22;59997;53.300;-6.260;2023-10-13T16:03:42;12.39;67.56
71942;DHT22;59997;53.300;-6.260;2023-10-13T16:06:21;12.19;68.51
71942;DHT22;59997;53.300;-6.260;2023-10-13T16:08:51;11.97;67.70
71942;DHT22;59997;53.300;-6.260;2023-10-13T16:11:18;11.81;68.50
71942;DHT22;59997;53.300;-6.260;2023-10-13T16:13:45;11.74;69.41
71942;DHT22;59997;53.300;-6.260;2023-10-13T16:16:21;11.71;69.24
71942;DHT22;59997;53.300;-6.260;2023-10-13T16:18:50;11.75;69.48
71942;DHT22;59997;53.300;-6.260;2023-10-13T16:21:16;11.81;70.03
71942;DHT22;59997;53.300;-6.260;2023-10-13T16:23:43;11.85;71.18
71942;DHT22;59997;53.300;-6.260;2023-10-13T16:26:13;11.81;71.15